메인 페이지
METAR-TAF:

METAR-TAF

공항 :

East Hampton Airport

East Hampton, 뉴욕, 미국

위도: 40-57-34N, 경도: 072-15-07W, 고도: 17m

현재 날씨관측

예보는 22분 전, 19:55시(UTC)에 발표되었습니다.
서남서7kt, 순간 최대 풍속 15kt
온도 5°C
습도 65%
기압 1004 hPa
시정: 16.1km
고도 3700ft 상공 구름 보통
고도 7000ft 상공 흐림

METAR: KHTO 211955Z AUTO 24007G15KT 10SM SCT037 OVC070 05/M01 A2965 RMK AO2 T00451012

시각: 15:17 (20:17 UTC)


TAF: 누락

4,000개 이상의 공항 관측 자료 및 예보 (METAR 및 TAF 보고).

지도상에서 검색 가능한 기상관측소가 노란 점과 빨간 점으로 표시되어 있습니다.

기상관측소 명을 보려면 표시 위로 마우스를 이동하세요.

날씨 관측과 예보를 보려면 클릭하세요.

지도 변경 : 확대하려면 엑스 표시가 있는 녹색 버튼, 축소하려면 빼기 표시가 있는 녹색 버튼, 다음 페이지의 지도를 보려면 녹색 화살표를 클릭하세요.


METAR-TAF: